• Join FlightAware (Why Join?)
  • Login
  • US Flag 
07:40PM EDT


 

Airport Tracker/Info


-or-


 

Live Flight TrackerFlight Track Log ✈ EJM214 ✈ 27-Jun-2013 ✈ KLSE - KITR

Flight Track Log - Related Links

Times and Time Zones

All times are in EDT time to prevent confusion due to time zone crossing. See the EJM214 flight status page for this flight to view local times or setup timezone preferences in your user account.

Time Position Orientation Groundspeed Altitude Reporting Facility
EDT Latitude Longitude Course Direction KTS MPH feet Rate Location/Type
09:21AM 43.9442 -91.2578 351° North 233 268 3,300  Level Minneapolis Center
09:22AM 44.0175 -91.2731 351° North 258 297 7,600 3,960 Climbing Minneapolis Center
09:23AM 44.0606 -91.3331 315° West 252 290 11,500 3,300 Climbing Minneapolis Center
09:24AM 44.0403 -91.4342 254° West 295 339 14,500 2,640 Climbing Minneapolis Center
09:25AM 44.0075 -91.5228 243° Southwest 315 362 17,000 3,360 Climbing Minneapolis Center
09:26AM 43.9475 -91.6856 243° Southwest 337 388 21,400 3,300 Climbing Minneapolis Center
09:27AM 43.9008 -91.8147 243° Southwest 351 404 23,900 2,460 Climbing Minneapolis Center
09:28AM 43.8531 -91.9394 242° Southwest 363 418 26,500 2,460 Climbing Minneapolis Center
09:29AM 43.8069 -92.0661 243° Southwest 367 422 29,000 2,280 Climbing Minneapolis Center
09:30AM 43.7647 -92.1806 243° Southwest 371 427 31,200 2,100 Climbing Minneapolis Center
09:31AM 43.7081 -92.3297 242° Southwest 372 428 33,400 1,740 Climbing Minneapolis Center
09:32AM 43.6597 -92.4581 243° Southwest 379 436 34,900 1,560 Climbing Minneapolis Center
09:33AM 43.6092 -92.5911 242° Southwest 391 450 36,600 1,500 Climbing Minneapolis Center
09:34AM 43.5694 -92.6964 243° Southwest 392 451 38,000 1,200 Climbing Minneapolis Center
09:35AM 43.5092 -92.8542 242° Southwest 392 451 39,200 960 Climbing Minneapolis Center
09:36AM 43.4678 -92.9619 242° Southwest 399 459 40,000 1,020 Climbing Minneapolis Center
09:37AM 43.3942 -93.1503 242° Southwest 402 463 41,400 960 Climbing Minneapolis Center
09:38AM 43.3436 -93.2831 242° Southwest 399 459 42,100 540 Climbing Minneapolis Center
09:39AM 43.2892 -93.4181 241° Southwest 404 465 42,600 420 Climbing Minneapolis Center
09:40AM 43.2344 -93.5561 241° Southwest 412 474 43,000 180 Climbing Minneapolis Center
09:41AM 43.1794 -93.6972 242° Southwest 416 479 43,000  Level Minneapolis Center
09:42AM 43.1133 -93.8647 242° Southwest 425 489 43,000  Level Minneapolis Center
09:43AM 43.0581 -94.0061 242° Southwest 426 490 43,000  Level Minneapolis Center
09:44AM 43.0028 -94.1475 242° Southwest 427 491 43,000  Level Minneapolis Center
09:45AM 42.9458 -94.2894 241° Southwest 428 493 43,000  Level Minneapolis Center
09:46AM 42.8858 -94.4314 240° Southwest 432 497 43,000  Level Minneapolis Center
09:48AM 42.8394 -94.5450 241° Southwest 434 499 43,000  Level Minneapolis Center
09:49AM 42.7583 -94.7428 241° Southwest 420 483 43,000  Level Minneapolis Center
09:50AM 42.7033 -94.8856 242° Southwest 433 498 43,000  Level Minneapolis Center
09:51AM 42.6450 -95.0258 241° Southwest 430 495 43,000  Level Minneapolis Center
09:52AM 42.5856 -95.1681 240° Southwest 434 499 43,000  Level Minneapolis Center
09:53AM 42.5261 -95.3086 240° Southwest 432 497 43,000  Level Minneapolis Center
09:54AM 42.4678 -95.4478 240° Southwest 428 493 43,000  Level Minneapolis Center
09:55AM 42.3972 -95.6144 240° Southwest 427 491 43,000  Level Minneapolis Center
09:56AM 42.3389 -95.7517 240° Southwest 422 486 43,000  Level Minneapolis Center
09:57AM 42.2800 -95.8908 240° Southwest 427 491 43,000  Level Minneapolis Center
09:58AM 42.2203 -96.0289 240° Southwest 428 493 43,100 360 Climbing Minneapolis Center
09:59AM 42.1622 -96.1647 240° Southwest 424 488 43,800 540 Climbing Minneapolis Center
10:00AM 42.1033 -96.3003 240° Southwest 422 486 44,300 360 Climbing Minneapolis Center
10:01AM 42.0458 -96.4367 240° Southwest 421 484 44,700 300 Climbing Minneapolis Center
10:02AM 41.9639 -96.6236 240° Southwest 418 481 45,000 120 Climbing Minneapolis Center
10:03AM 41.9039 -96.7589 239° Southwest 423 487 45,000  Level Minneapolis Center
10:04AM 41.8428 -96.8981 240° Southwest 431 496 45,000  Level Minneapolis Center
10:05AM 41.7747 -97.0300 235° Southwest 432 497 45,000  Level Minneapolis Center
10:06AM 41.6919 -97.1408 225° Southwest 426 490 45,000  Level Minneapolis Center
10:07AM 41.5931 -97.2778 226° Southwest 426 490 45,000  Level Minneapolis Center
10:08AM 41.4878 -97.4097 223° Southwest 432 497 45,000  Level Minneapolis Center
10:10AM 41.4042 -97.5261 226° Southwest 435 501 45,000  Level Minneapolis Center
10:11AM 41.3258 -97.6339 226° Southwest 439 505 45,000  Level Minneapolis Center
10:12AM 41.2564 -97.7633 235° Southwest 436 502 45,000  Level Minneapolis Center
10:13AM 41.1856 -97.9311 241° Southwest 433 498 45,000  Level Minneapolis Center
10:14AM 41.1150 -98.1011 241° Southwest 436 502 45,000  Level Minneapolis Center
10:15AM 41.0536 -98.2461 241° Southwest 444 511 45,000  Level Minneapolis Center
10:16AM 40.9919 -98.3933 241° Southwest 449 517 45,000  Level Minneapolis Center
10:17AM 40.9258 -98.5481 241° Southwest 458 527 45,000  Level Minneapolis Center
10:18AM 40.8497 -98.7275 241° Southwest 465 535 45,000  Level Minneapolis Center
10:19AM 40.7869 -98.8781 241° Southwest 468 539 45,000  Level Minneapolis Center
10:20AM 40.7211 -99.0292 240° Southwest 469 540 45,000  Level Minneapolis Center
10:21AM 40.6569 -99.1789 241° Southwest 469 540 45,000 -360 Level Minneapolis Center
10:22AM 40.5803 -99.3564 240° Southwest 464 534 44,300 -840 Descending Minneapolis Center
10:23AM 40.5283 -99.4742 240° Southwest 467 537 43,500 -1,200 Descending Denver Center
10:24AM 40.4636 -99.6233 240° Southwest 469 540 42,100 -1,620 Descending Denver Center
10:25AM 40.4000 -99.7667 240° Southwest 458 527 40,200 -2,040 Descending Denver Center
10:26AM 40.3331 -99.9178 240° Southwest 447 514 38,000 -2,040 Descending Denver Center
10:27AM 40.2733 -100.0517 240° Southwest 444 511 36,100 -2,040 Descending Denver Center
10:28AM 40.2019 -100.2119 240° Southwest 452 520 33,900 -2,040 Descending Denver Center
10:29AM 40.1403 -100.3494 240° Southwest 456 525 31,900 -2,040 Descending Denver Center
10:30AM 40.0686 -100.5067 239° Southwest 450 518 29,700 -2,040 Descending Denver Center
10:31AM 40.0064 -100.6447 240° Southwest 458 527 27,800 -2,040 Descending Denver Center
10:32AM 39.9333 -100.8050 239° Southwest 458 527 25,500 -2,040 Descending Denver Center
10:34AM 39.8725 -100.9381 239° Southwest 449 517 23,600 -2,040 Descending Denver Center
10:35AM 39.8039 -101.0881 239° Southwest 432 497 21,300 -2,040 Descending Denver Center
10:36AM 39.7481 -101.2139 240° Southwest 422 486 19,400 -1,800 Descending Denver Center
10:37AM 39.6908 -101.3331 238° Southwest 410 472 17,600 -2,040 Descending Denver Center
10:38AM 39.6292 -101.4678 239° Southwest 392 451 15,300 -2,040 Descending Denver Center
10:39AM 39.5775 -101.5769 238° Southwest 376 433 13,400 -1,980 Descending Denver Center
10:40AM 39.5244 -101.6917 239° Southwest 339 390 11,200 -1,800 Descending Denver Center
10:41AM 39.4814 -101.7803 238° Southwest 310 357 9,700 -1,560 Descending Denver Center
10:42AM 39.4367 -101.8775 239° Southwest 287 330 8,000 -1,560 Descending Denver Center
10:43AM 39.3983 -101.9567 238° Southwest 273 314 6,500 -1,500 Descending Denver Center